• Join FlightAware (Why Join?)
  • Login
  • US Flag 
08:14AM EST


 

Airport Tracker/Info


-or-


 

Live Flight TrackerFlight Track Log ✈ RAX81 ✈ 22-May-2013 ✈ KPTK - KFTY

Flight Track Log - Related Links

Times and Time Zones

All times are in EDT time to prevent confusion due to time zone crossing. See the RAX81 flight status page for this flight to view local times or setup timezone preferences in your user account.

Time Position Orientation Groundspeed Altitude Reporting Facility
EDT Latitude Longitude Course Direction KTS MPH feet Rate Location/Type
10:08PM 42.6622 -83.4464 272° West 133 153 1,500  Level Cleveland Center
10:09PM 42.6633 -83.4886 272° West 134 154 2,800 1,380 Climbing Cleveland Center
10:10PM 42.6942 -83.5014 343° North 168 193 4,200 1,020 Climbing Cleveland Center
10:11PM 42.7083 -83.4369 73° East 191 220 5,000 420 Climbing Cleveland Center
10:12PM 42.6669 -83.4239 167° South 186 214 5,100  Climbing Cleveland Center
10:13PM 42.6181 -83.4639 211° Southwest 201 231 5,000 300 Descending Cleveland Center
10:14PM 42.5669 -83.4983 206° Southwest 202 232 5,800 960 Climbing Cleveland Center
10:15PM 42.5247 -83.5275 207° Southwest 165 190 7,000 1,200 Climbing Cleveland Center
10:16PM 42.4822 -83.5508 202° Southwest 160 184 8,300 1,200 Climbing Cleveland Center
10:17PM 42.4422 -83.5714 201° Southwest 156 180 9,500 840 Climbing Cleveland Center
10:18PM 42.3978 -83.5975 203° Southwest 170 196 10,000 600 Climbing Cleveland Center
10:19PM 42.3344 -83.6281 200° South 205 236 11,000 1,020 Climbing Cleveland Center
10:20PM 42.3006 -83.6489 204° Southwest 183 211 12,400 1,020 Climbing Cleveland Center
10:21PM 42.2628 -83.6528 184° South 154 177 13,100 360 Climbing Cleveland Center
10:22PM 42.2158 -83.6167 150° Southeast 152 175 13,200 660 Climbing Cleveland Center
10:23PM 42.1719 -83.6258 189° South 160 184 14,500 900 Climbing Cleveland Center
10:24PM 42.1319 -83.6408 196° South 160 184 15,000 240 Climbing Cleveland Center
10:25PM 42.0856 -83.6553 193° South 165 190 15,000  Level Cleveland Center
10:26PM 42.0353 -83.6697 192° South 176 203 15,000 180 Level Cleveland Center
10:27PM 41.9847 -83.6839 192° South 181 208 15,400 840 Climbing Cleveland Center
10:28PM 41.9428 -83.6931 189° South 175 201 16,700 900 Climbing Cleveland Center
10:29PM 41.9050 -83.7053 194° South 159 183 17,200 420 Climbing Cleveland Center
10:30PM 41.8650 -83.7200 195° South 154 177 17,600 540 Climbing Cleveland Center
10:31PM 41.8247 -83.7375 198° South 154 177 18,300 540 Climbing Cleveland Center
10:32PM 41.7806 -83.7550 196° South 154 177 18,700 420 Climbing Cleveland Center
10:33PM 41.7383 -83.7694 194° South 154 177 19,200 480 Climbing Cleveland Center
10:34PM 41.6983 -83.7842 195° South 159 183 19,700 480 Climbing Cleveland Center
10:35PM 41.6564 -83.7961 192° South 159 183 20,200 120 Climbing Cleveland Center
10:36PM 41.6061 -83.8019 185° South 172 198 20,000 -120 Descending Cleveland Center
10:37PM 41.5561 -83.8078 185° South 179 206 20,000  Level Cleveland Center
10:38PM 41.5036 -83.8161 187° South 185 213 20,000  Level Cleveland Center
10:39PM 41.4492 -83.8244 187° South 190 219 20,000  Level Cleveland Center
10:40PM 41.3969 -83.8275 183° South 195 224 20,000  Level Cleveland Center
10:41PM 41.3425 -83.8331 184° South 200 230 20,000  Level Cleveland Center
10:42PM 41.2903 -83.8386 185° South 200 230 20,000  Level Cleveland Center
10:43PM 41.2381 -83.8444 185° South 200 230 20,000  Level Cleveland Center
10:44PM 41.1856 -83.8500 185° South 200 230 20,000  Level Cleveland Center
10:46PM 41.0975 -83.8558 183° South 189 217 20,000  Level Indianapolis Center
10:47PM 41.0472 -83.8614 185° South 193 222 20,000  Level Indianapolis Center
10:48PM 40.9939 -83.8656 183° South 190 219 20,000  Level Indianapolis Center
10:49PM 40.9397 -83.8711 184° South 193 222 20,000  Level Indianapolis Center
10:50PM 40.8875 -83.8736 182° South 188 216 20,000 -60 Level Indianapolis Center
10:51PM 40.8361 -83.8806 186° South 186 214 19,900 -60 Descending Indianapolis Center
10:52PM 40.7756 -83.8864 184° South 187 215 19,900  Level Indianapolis Center
10:53PM 40.7233 -83.8908 184° South 185 213 20,000  Climbing Indianapolis Center
10:54PM 40.6708 -83.8950 183° South 186 214 20,000  Level Indianapolis Center
10:55PM 40.6181 -83.8989 183° South 187 215 20,000  Level Indianapolis Center
10:56PM 40.5647 -83.9036 184° South 189 217 20,000  Level Indianapolis Center
10:57PM 40.5133 -83.9083 184° South 186 214 20,000  Level Indianapolis Center
10:58PM 40.4606 -83.9133 184° South 188 216 20,000  Level Indianapolis Center
10:59PM 40.4072 -83.9181 184° South 191 220 20,000  Level Indianapolis Center
11:00PM 40.3542 -83.9222 183° South 188 216 20,000  Level Indianapolis Center
11:01PM 40.3008 -83.9286 185° South 191 220 20,000  Level Indianapolis Center
11:02PM 40.2472 -83.9333 184° South 191 220 20,000  Level Indianapolis Center
11:03PM 40.1931 -83.9375 183° South 191 220 20,000  Level Indianapolis Center
11:04PM 40.1383 -83.9417 183° South 196 226 20,000  Level Indianapolis Center
11:05PM 40.0839 -83.9469 184° South 194 223 20,000  Level Indianapolis Center
11:06PM 40.0289 -83.9519 184° South 195 224 20,000  Level Indianapolis Center
11:07PM 39.9647 -83.9564 183° South 198 228 20,000  Level Indianapolis Center
11:08PM 39.9092 -83.9600 183° South 199 229 20,000  Level Indianapolis Center
11:09PM 39.8544 -83.9633 183° South 197 227 20,000  Level Indianapolis Center
11:10PM 39.7994 -83.9675 183° South 196 226 20,000  Level Indianapolis Center
11:11PM 39.7444 -83.9728 184° South 197 227 20,000  Level Indianapolis Center
11:12PM 39.6903 -83.9789 185° South 195 224 20,000  Level Indianapolis Center
11:13PM 39.6347 -83.9836 184° South 198 228 20,000  Level Indianapolis Center
11:14PM 39.5775 -83.9881 183° South 203 234 20,000  Level Indianapolis Center
11:15PM 39.5208 -83.9939 185° South 203 234 20,000  Level Indianapolis Center
11:16PM 39.4658 -83.9992 184° South 198 228 20,000  Level Indianapolis Center
11:17PM 39.4111 -84.0053 185° South 196 226 20,000  Level Indianapolis Center
11:18PM 39.3544 -84.0106 184° South 200 230 20,000  Level Indianapolis Center
11:19PM 39.2994 -84.0161 184° South 198 228 20,000  Level Indianapolis Center
11:20PM 39.2342 -84.0197 182° South 201 231 20,000  Level Indianapolis Center
11:21PM 39.1786 -84.0236 183° South 199 229 20,000  Level Indianapolis Center
11:22PM 39.1242 -84.0289 184° South 197 227 20,000  Level Indianapolis Center
11:23PM 39.0689 -84.0322 183° South 198 228 20,000  Level Indianapolis Center
11:24PM 39.0119 -84.0381 185° South 203 234 20,000  Level Indianapolis Center
11:25PM 38.9569 -84.0422 183° South 196 226 20,000  Level Indianapolis Center
11:26PM 38.9006 -84.0489 185° South 201 231 20,000  Level Indianapolis Center
11:27PM 38.8456 -84.0536 184° South 197 227 20,000  Level Indianapolis Center
11:29PM 38.7900 -84.0594 185° South 198 228 20,000  Level Indianapolis Center
11:30PM 38.7356 -84.0650 185° South 196 226 20,000  Level Indianapolis Center
11:31PM 38.6800 -84.0708 185° South 197 227 20,000  Level Indianapolis Center
11:32PM 38.6217 -84.0767 184° South 197 227 20,000  Level Indianapolis Center
11:33PM 38.5664 -84.0822 184° South 199 229 20,000  Level Indianapolis Center
11:34PM 38.5106 -84.0886 185° South 201 231 20,000  Level Indianapolis Center
11:35PM 38.4553 -84.0944 185° South 199 229 20,000  Level Indianapolis Center
11:36PM 38.3992 -84.1025 186° South 201 231 20,000  Level Indianapolis Center
11:37PM 38.3358 -84.1108 186° South 197 227 20,000  Level Indianapolis Center
11:38PM 38.2814 -84.1164 185° South 196 226 20,000  Level Indianapolis Center
11:39PM 38.2272 -84.1242 186° South 196 226 20,000  Level Indianapolis Center
11:40PM 38.1719 -84.1311 186° South 199 229 20,000  Level Indianapolis Center
11:41PM 38.1178 -84.1361 184° South 196 226 20,000 -60 Level Indianapolis Center
11:42PM 38.0642 -84.1428 186° South 194 223 19,900  Descending Indianapolis Center
11:43PM 38.0100 -84.1478 184° South 194 223 20,000  Climbing Indianapolis Center
11:44PM 37.9567 -84.1533 185° South 192 221 20,000  Level Indianapolis Center
11:45PM 37.9025 -84.1581 184° South 195 224 20,000  Level Indianapolis Center
11:46PM 37.8397 -84.1642 184° South 192 221 20,000  Level Indianapolis Center
11:47PM 37.7867 -84.1692 184° South 193 222 20,000  Level Indianapolis Center
11:48PM 37.7322 -84.1739 184° South 194 223 20,000  Level Indianapolis Center
11:49PM 37.6781 -84.1800 185° South 196 226 20,000  Level Indianapolis Center
11:50PM 37.6242 -84.1856 185° South 195 224 20,000  Level Indianapolis Center
11:51PM 37.5683 -84.1914 185° South 199 229 20,000  Level Indianapolis Center
11:52PM 37.5131 -84.1964 184° South 199 229 20,000  Level Indianapolis Center
11:53PM 37.4586 -84.2014 184° South 198 228 20,000  Level Indianapolis Center
11:54PM 37.3953 -84.2083 185° South 198 228 20,000  Level Indianapolis Center
11:55PM 37.3400 -84.2142 185° South 198 228 20,000  Level Indianapolis Center
11:56PM 37.2878 -84.2169 182° South 190 219 20,000  Level Indianapolis Center
11:57PM 37.2308 -84.2222 184° South 200 230 20,000  Level Indianapolis Center
11:58PM 37.1772 -84.2292 186° South 196 226 20,000  Level Indianapolis Center
11:59PM 37.1219 -84.2336 184° South 198 228 20,000  Level Indianapolis Center
12:00AM 37.0672 -84.2397 185° South 197 227 20,000  Level Indianapolis Center
12:01AM 37.0125 -84.2458 185° South 197 227 20,000  Level Indianapolis Center
12:02AM 36.9472 -84.2508 184° South 201 231 20,000  Level Indianapolis Center
12:03AM 36.8925 -84.2556 184° South 198 228 20,000  Level Indianapolis Center
12:04AM 36.8372 -84.2597 183° South 198 228 20,000  Level Indianapolis Center
12:05AM 36.7822 -84.2647 184° South 198 228 20,000  Level Indianapolis Center
12:06AM 36.7289 -84.2686 183° South 194 223 20,000  Level Indianapolis Center
12:07AM 36.6750 -84.2736 184° South 193 222 20,000  Level Indianapolis Center
12:08AM 36.6222 -84.2781 184° South 192 221 20,000  Level Indianapolis Center
12:09AM 36.5669 -84.2822 183° South 196 226 20,000  Level Indianapolis Center
12:10AM 36.5131 -84.2867 184° South 196 226 20,000  Level Indianapolis Center
12:11AM 36.4586 -84.2911 184° South 198 228 20,000  Level Indianapolis Center
12:12AM 36.3928 -84.2978 185° South 199 229 20,000  Level Indianapolis Center
12:13AM 36.3369 -84.3025 184° South 200 230 20,000  Level Indianapolis Center
12:14AM 36.2817 -84.3081 185° South 199 229 20,000  Level Indianapolis Center
12:15AM 36.2250 -84.3139 185° South 202 232 20,000  Level Indianapolis Center
12:16AM 36.1681 -84.3197 185° South 204 235 20,000  Level Indianapolis Center
12:17AM 36.1122 -84.3267 186° South 202 232 20,000  Level Indianapolis Center
12:18AM 36.0850 -84.3317 188° South 201 231 20,000  Level Atlanta Center
12:19AM 36.0286 -84.3367 184° South 201 231 20,000  Level Atlanta Center
12:20AM 35.9725 -84.3442 186° South 201 231 20,000  Level Atlanta Center
12:21AM 35.9161 -84.3464 182° South 201 231 20,000  Level Atlanta Center
12:22AM 35.8597 -84.3539 186° South 201 231 20,000  Level Atlanta Center
12:23AM 35.8033 -84.3561 182° South 201 231 20,000  Level Atlanta Center
12:24AM 35.7469 -84.3611 184° South 201 231 20,000  Level Atlanta Center
12:25AM 35.6908 -84.3661 184° South 201 231 20,000  Level Atlanta Center
12:26AM 35.6364 -84.3708 184° South 201 231 20,000  Level Atlanta Center
12:27AM 35.5800 -84.3733 182° South 201 231 20,000  Level Atlanta Center
12:28AM 35.5239 -84.3808 186° South 201 231 20,000  Level Atlanta Center
12:29AM 35.4653 -84.3856 184° South 201 231 20,000  Level Atlanta Center
12:30AM 35.4089 -84.3931 186° South 201 231 20,000  Level Atlanta Center
12:31AM 35.3506 -84.3978 184° South 201 231 20,000  Level Atlanta Center
12:32AM 35.2942 -84.4053 186° South 201 231 20,000  Level Atlanta Center
12:33AM 35.2358 -84.4125 186° South 206 237 20,000  Level Atlanta Center
12:34AM 35.1794 -84.4175 184° South 206 237 20,000  Level Atlanta Center
12:35AM 35.1336 -84.4222 185° South 206 237 20,000  Level Atlanta Center
12:36AM 35.0731 -84.4297 186° South 206 237 20,000  Level Atlanta Center
12:37AM 35.0125 -84.4344 184° South 211 243 20,000  Level Atlanta Center
12:38AM 34.9539 -84.4392 184° South 216 249 20,000  Level Atlanta Center
12:39AM 34.8872 -84.4261 171° South 216 249 20,000  Level Atlanta Center
12:40AM 34.8308 -84.4436 194° South 216 249 20,000  Level Atlanta Center
12:41AM 34.7703 -84.4483 184° South 216 249 20,000  Level Atlanta Center
12:42AM 34.7119 -84.4531 184° South 216 249 20,000 -480 Level Atlanta Center
12:43AM 34.6472 -84.4578 183° South 226 260 19,100 -1,260 Descending Atlanta Center
12:44AM 34.5783 -84.4650 185° South 247 284 17,500 -1,440 Descending Atlanta Center
12:45AM 34.5136 -84.4700 184° South 262 302 16,300 -1,320 Descending Atlanta Center
12:46AM 34.4406 -84.4769 184° South 262 302 14,900 -1,500 Descending Atlanta Center
12:47AM 34.3694 -84.4817 183° South 262 302 13,300 -1,620 Descending Atlanta Center
12:48AM 34.3006 -84.4864 183° South 255 293 11,700 -1,500 Descending Atlanta Center
12:49AM 34.2317 -84.4911 183° South 255 293 10,300 -1,560 Descending Atlanta Center
12:50AM 34.1669 -84.4958 183° South 255 293 8,600 -1,740 Descending Atlanta Center
12:51AM 34.1003 -84.5003 183° South 250 288 6,900 -1,680 Descending Atlanta Center
12:52AM 34.0314 -84.5075 185° South 239 275 5,300 -1,560 Descending Atlanta Center
12:53AM 33.9686 -84.5122 184° South 233 268 3,800 -1,320 Descending Atlanta Center
12:54AM 33.9081 -84.5144 182° South 233 268 2,700 -840 Descending Atlanta Center
12:55AM 33.8667 -84.5000 164° South 204 235 2,400 -180 Descending Atlanta TRACON
12:56AM 33.8333 -84.4833 157° South 154 177 2,400 -420 Level Atlanta TRACON
12:57AM 33.7833 -84.5000 195° South 128 147 1,600 -840 Descending Atlanta TRACON
12:59AM 33.7667 -84.5167 180° South  Level FlightAware Approximate